createdAt,value
2022-12-15T00:02:20.006Z,77.28
2022-12-15T00:05:05.677Z,73.50
2022-12-15T00:07:52.288Z,72.70
2022-12-15T00:10:38.084Z,83.03
2022-12-15T00:13:30.597Z,77.82
2022-12-15T00:16:16.841Z,65.60
2022-12-15T00:19:02.380Z,74.40
2022-12-15T00:21:49.088Z,79.53
2022-12-15T00:24:34.254Z,71.18
2022-12-15T00:27:20.033Z,74.40
2022-12-15T00:30:05.205Z,62.30
2022-12-15T00:32:50.952Z,61.20
2022-12-15T00:35:36.685Z,70.05
2022-12-15T00:38:33.181Z,61.17
2022-12-15T00:41:01.663Z,64.78
2022-12-15T00:43:33.363Z,63.47
2022-12-15T00:46:21.056Z,64.05
2022-12-15T00:48:48.121Z,61.28
2022-12-15T00:51:16.318Z,69.90
2022-12-15T00:54:02.443Z,66.13
2022-12-15T00:56:48.278Z,66.35
2022-12-15T00:59:33.832Z,64.57
2022-12-15T01:02:21.309Z,59.10
2022-12-15T01:05:06.571Z,66.78
2022-12-15T01:07:52.616Z,66.97
2022-12-15T01:10:38.434Z,69.57
2022-12-15T01:13:24.196Z,64.70
2022-12-15T01:16:10.608Z,55.20
2022-12-15T01:18:55.854Z,62.65
2022-12-15T01:21:25.261Z,61.58
2022-12-15T01:23:52.721Z,63.72
2022-12-15T01:26:20.329Z,67.43
2022-12-15T01:28:46.961Z,65.00
2022-12-15T01:31:14.911Z,69.32
2022-12-15T01:33:43.440Z,62.58
2022-12-15T01:36:11.081Z,59.63
2022-12-15T01:38:38.224Z,63.20
2022-12-15T01:41:08.031Z,71.90
2022-12-15T01:43:37.725Z,64.20
2022-12-15T01:46:18.319Z,69.88
2022-12-15T01:48:48.053Z,58.50
2022-12-15T01:51:24.785Z,60.58
2022-12-15T01:54:17.790Z,58.85
2022-12-15T01:56:48.680Z,63.22
2022-12-15T01:59:19.591Z,61.10
2022-12-15T02:01:50.043Z,65.43
2022-12-15T02:04:20.530Z,58.20
2022-12-15T02:06:47.979Z,60.63
2022-12-15T02:09:15.486Z,70.13
2022-12-15T02:12:02.393Z,68.07
2022-12-15T02:14:44.590Z,60.67
2022-12-15T02:17:35.551Z,61.55
2022-12-15T02:20:34.746Z,67.95
2022-12-15T02:23:34.372Z,67.47
2022-12-15T02:26:31.344Z,66.95
2022-12-15T02:29:23.281Z,68.28
2022-12-15T02:31:55.480Z,74.68
2022-12-15T02:34:24.936Z,64.70
2022-12-15T02:36:58.407Z,75.22
2022-12-15T02:39:26.080Z,60.08
2022-12-15T02:41:53.432Z,67.72
2022-12-15T02:44:22.658Z,66.13
2022-12-15T02:47:14.307Z,55.60
2022-12-15T02:49:50.074Z,62.95
2022-12-15T02:52:54.172Z,66.10
2022-12-15T02:55:31.597Z,65.13
2022-12-15T02:58:11.336Z,62.80
2022-12-15T03:00:45.083Z,59.63
2022-12-15T03:03:14.730Z,61.30
2022-12-15T03:05:41.474Z,57.53
2022-12-15T03:08:09.465Z,59.72
2022-12-15T03:10:36.151Z,53.95
2022-12-15T03:13:03.405Z,55.15
2022-12-15T03:15:35.269Z,59.00
2022-12-15T03:18:03.318Z,67.63
2022-12-15T03:20:29.910Z,66.97
2022-12-15T03:22:57.201Z,55.72
2022-12-15T03:25:23.841Z,65.40
2022-12-15T03:27:51.146Z,59.03
2022-12-15T03:30:17.862Z,70.70
2022-12-15T03:32:45.170Z,65.45
2022-12-15T03:35:12.811Z,66.22
2022-12-15T03:37:41.010Z,67.90
2022-12-15T03:40:09.174Z,69.05
2022-12-15T03:42:48.227Z,58.70
2022-12-15T03:45:21.380Z,59.50
2022-12-15T03:47:48.366Z,66.45
2022-12-15T03:50:18.647Z,68.78
2022-12-15T03:52:45.642Z,60.20
2022-12-15T03:55:13.211Z,60.47
2022-12-15T03:57:39.808Z,61.35
2022-12-15T04:00:07.676Z,58.75
2022-12-15T04:02:39.290Z,63.20
2022-12-15T04:05:07.069Z,69.18
2022-12-15T04:07:33.665Z,64.03
2022-12-15T04:10:01.040Z,57.85
2022-12-15T04:12:27.735Z,68.65
2022-12-15T04:14:54.956Z,62.42
2022-12-15T04:17:21.573Z,63.72
2022-12-15T04:20:07.257Z,72.95
2022-12-15T04:22:33.901Z,62.22
2022-12-15T04:25:19.289Z,59.17
2022-12-15T04:28:04.689Z,65.72
2022-12-15T04:30:50.650Z,69.97
2022-12-15T04:33:36.445Z,73.35
2022-12-15T04:36:22.997Z,67.88
2022-12-15T04:39:08.704Z,73.18
2022-12-15T04:41:54.117Z,74.88
2022-12-15T04:44:40.021Z,69.35
2022-12-15T04:47:25.593Z,66.45
2022-12-15T04:50:11.448Z,63.08
2022-12-15T04:52:56.949Z,72.35
2022-12-15T04:55:42.687Z,82.72
2022-12-15T04:58:28.586Z,74.80
2022-12-15T05:01:17.319Z,74.18
2022-12-15T05:04:02.996Z,72.00
2022-12-15T05:06:48.330Z,66.53
2022-12-15T05:09:34.141Z,74.97
2022-12-15T05:12:19.412Z,75.95
2022-12-15T05:15:05.115Z,80.38
2022-12-15T05:17:50.414Z,65.47
2022-12-15T05:20:36.331Z,84.15
2022-12-15T05:23:21.711Z,69.50
2022-12-15T05:26:07.596Z,77.45
2022-12-15T05:28:53.481Z,85.15
2022-12-15T05:31:38.872Z,76.43
2022-12-15T05:34:07.199Z,67.00
2022-12-15T05:36:33.803Z,70.85
2022-12-15T05:39:01.037Z,72.40
2022-12-15T05:41:27.626Z,71.65
2022-12-15T05:43:54.882Z,75.40
2022-12-15T05:46:21.890Z,82.55
2022-12-15T05:48:48.847Z,81.00
2022-12-15T05:51:16.190Z,85.93
2022-12-15T05:53:43.066Z,84.63
2022-12-15T05:56:13.092Z,77.55
2022-12-15T05:58:45.136Z,80.57
2022-12-15T06:01:18.097Z,77.43
2022-12-15T06:03:44.931Z,64.05
2022-12-15T06:06:13.253Z,74.47
2022-12-15T06:08:42.037Z,80.07
2022-12-15T06:11:12.686Z,74.57
2022-12-15T06:13:39.930Z,84.03
2022-12-15T06:16:18.895Z,74.40
2022-12-15T06:18:49.955Z,81.10
2022-12-15T06:21:19.993Z,76.00
2022-12-15T06:23:47.911Z,75.35
2022-12-15T06:26:17.513Z,75.40
2022-12-15T06:28:44.595Z,69.05
2022-12-15T06:31:13.040Z,85.07
2022-12-15T06:33:40.279Z,70.90
2022-12-15T06:36:13.462Z,70.20
2022-12-15T06:38:43.284Z,84.57
2022-12-15T06:41:13.037Z,81.65
2022-12-15T06:43:40.227Z,71.60
2022-12-15T06:46:09.169Z,67.25
2022-12-15T06:48:35.963Z,70.32
2022-12-15T06:51:05.473Z,71.57
2022-12-15T06:53:32.771Z,84.03
2022-12-15T06:56:07.360Z,85.40
2022-12-15T06:58:34.375Z,81.05
2022-12-15T07:01:08.026Z,77.43
2022-12-15T07:03:36.139Z,72.88
2022-12-15T07:06:06.079Z,80.65
2022-12-15T07:08:40.989Z,86.78
2022-12-15T07:11:12.405Z,100.50
2022-12-15T07:13:40.480Z,81.55
2022-12-15T07:16:08.201Z,77.40
2022-12-15T07:18:34.804Z,86.47
2022-12-15T07:21:04.601Z,83.95
2022-12-15T07:23:53.452Z,86.97
2022-12-15T07:26:18.916Z,90.78
2022-12-15T07:28:45.908Z,81.35
2022-12-15T07:31:12.589Z,83.90
2022-12-15T07:33:39.840Z,87.78
2022-12-15T07:36:08.622Z,83.80
2022-12-15T07:38:35.981Z,76.22
2022-12-15T07:41:08.197Z,89.57
2022-12-15T07:43:35.730Z,97.47
2022-12-15T07:46:04.736Z,88.80
2022-12-15T07:48:32.243Z,86.97
2022-12-15T07:51:08.485Z,77.47
2022-12-15T07:53:38.762Z,86.88
2022-12-15T07:56:08.585Z,85.20
2022-12-15T07:58:36.157Z,96.15
2022-12-15T08:01:06.465Z,92.07
2022-12-15T08:03:34.087Z,95.10
2022-12-15T08:06:06.147Z,75.50
2022-12-15T08:08:34.322Z,84.85
2022-12-15T08:11:06.654Z,78.60
2022-12-15T08:16:22.035Z,80.85
2022-12-15T08:18:48.747Z,89.47
2022-12-15T08:21:16.389Z,104.63
2022-12-15T08:23:43.043Z,90.07
2022-12-15T08:26:12.840Z,97.78
2022-12-15T08:28:40.902Z,89.78
2022-12-15T08:31:13.952Z,94.10
2022-12-15T08:33:41.091Z,80.97
2022-12-15T08:36:10.415Z,90.43
2022-12-15T08:38:38.876Z,85.53
2022-12-15T08:41:10.365Z,84.15
2022-12-15T08:43:41.286Z,80.85
2022-12-15T08:46:14.410Z,89.65
2022-12-15T08:48:41.085Z,82.25
2022-12-15T08:51:08.384Z,75.85
2022-12-15T08:53:35.048Z,88.78
2022-12-15T08:56:04.474Z,78.43
2022-12-15T08:58:31.242Z,86.05
2022-12-15T09:01:17.325Z,93.20
2022-12-15T09:03:48.351Z,85.25
2022-12-15T09:06:20.972Z,88.07
2022-12-15T09:08:50.360Z,79.68
2022-12-15T09:11:17.854Z,76.68
2022-12-15T09:13:45.243Z,76.47
2022-12-15T09:16:15.567Z,73.35
2022-12-15T09:18:45.239Z,77.80
2022-12-15T09:21:13.236Z,77.82
2022-12-15T09:23:40.709Z,77.40
2022-12-15T09:26:13.200Z,72.60
2022-12-15T09:28:40.663Z,78.47
2022-12-15T09:31:17.613Z,81.72
2022-12-15T09:33:45.144Z,82.78
2022-12-15T09:36:13.031Z,74.60
2022-12-15T09:38:41.978Z,87.63
2022-12-15T09:41:14.835Z,80.32
2022-12-15T09:44:14.623Z,83.45
2022-12-15T09:47:18.645Z,74.32
2022-12-15T09:49:52.705Z,78.95
2022-12-15T09:52:33.352Z,80.65
2022-12-15T09:55:02.003Z,68.05
2022-12-15T09:58:09.077Z,87.60
2022-12-15T10:00:45.856Z,78.15
2022-12-15T10:03:40.543Z,76.88
2022-12-15T10:09:24.386Z,73.43
2022-12-15T10:12:07.165Z,72.72
2022-12-15T10:14:45.990Z,76.30
2022-12-15T10:17:16.679Z,69.70
2022-12-15T10:19:55.688Z,72.70
2022-12-15T10:22:35.022Z,70.82
2022-12-15T10:25:20.869Z,77.25
2022-12-15T10:28:05.142Z,71.07
2022-12-15T10:30:33.297Z,64.78
2022-12-15T10:33:20.584Z,71.30
2022-12-15T10:35:49.096Z,77.40
2022-12-15T10:38:37.492Z,80.55
2022-12-15T10:41:20.952Z,76.25
2022-12-15T10:43:50.397Z,69.40
2022-12-15T10:46:20.571Z,71.47
2022-12-15T10:49:10.337Z,75.30
2022-12-15T10:51:44.574Z,77.80
2022-12-15T10:54:13.901Z,80.38
2022-12-15T10:56:57.360Z,79.68
2022-12-15T10:59:25.780Z,84.63
2022-12-15T11:01:52.905Z,92.43
2022-12-15T11:04:38.470Z,104.65
2022-12-15T11:07:14.338Z,108.88
2022-12-15T11:09:41.941Z,123.82
2022-12-15T11:12:42.658Z,115.82
2022-12-15T11:15:24.882Z,118.80
2022-12-15T11:18:26.972Z,120.38
2022-12-15T11:21:02.723Z,97.20
2022-12-15T11:23:46.685Z,131.43
2022-12-15T11:26:28.138Z,127.22
2022-12-15T11:29:00.697Z,137.27
2022-12-15T11:31:43.382Z,128.13
2022-12-15T11:34:22.366Z,144.73
2022-12-15T11:37:36.226Z,128.45
2022-12-15T11:40:28.314Z,126.07
2022-12-15T11:43:16.758Z,134.32
2022-12-15T11:46:18.922Z,136.48
2022-12-15T11:49:39.186Z,136.98
2022-12-15T11:52:30.391Z,127.13
2022-12-15T11:55:17.872Z,139.38
2022-12-15T11:58:22.832Z,131.70
2022-12-15T12:01:23.734Z,123.38
2022-12-15T12:04:21.335Z,130.55
2022-12-15T12:07:04.254Z,133.30
2022-12-15T12:09:39.347Z,125.93
2022-12-15T12:12:17.932Z,136.65
2022-12-15T12:15:05.203Z,126.60
2022-12-15T12:17:43.398Z,130.93
2022-12-15T12:20:54.270Z,137.50
2022-12-15T12:23:52.861Z,141.40
2022-12-15T12:26:26.487Z,130.90
2022-12-15T12:29:07.374Z,134.93
2022-12-15T12:32:04.167Z,142.30
2022-12-15T12:35:30.877Z,141.15
2022-12-15T12:37:50.849Z,132.70
2022-12-15T12:40:40.462Z,138.05
2022-12-15T12:43:13.554Z,141.55
2022-12-15T12:45:50.477Z,140.88
2022-12-15T12:48:34.243Z,142.60
2022-12-15T12:51:18.490Z,138.35
2022-12-15T12:53:45.194Z,135.85
2022-12-15T12:59:37.779Z,142.57
2022-12-15T13:02:45.247Z,132.65
2022-12-15T13:05:33.115Z,141.32
2022-12-15T13:08:05.786Z,142.38
2022-12-15T13:10:36.454Z,134.25
2022-12-15T13:13:31.772Z,137.00
2022-12-15T13:16:21.515Z,145.85
2022-12-15T13:19:14.779Z,134.20
2022-12-15T13:21:42.128Z,138.95
2022-12-15T13:24:27.116Z,142.80
2022-12-15T13:27:09.646Z,143.00
2022-12-15T13:29:54.001Z,141.23
2022-12-15T13:32:33.916Z,138.02
2022-12-15T13:35:14.257Z,150.50
2022-12-15T13:37:50.533Z,136.23
2022-12-15T13:40:38.464Z,135.80
2022-12-15T13:43:05.004Z,136.75
2022-12-15T13:45:38.163Z,147.02
2022-12-15T13:48:20.212Z,146.27
2022-12-15T13:51:21.421Z,134.98
2022-12-15T13:54:00.139Z,145.65
2022-12-15T13:56:46.552Z,145.75
2022-12-15T13:59:34.222Z,152.05
2022-12-15T14:02:00.936Z,139.55
2022-12-15T14:04:28.348Z,148.07
2022-12-15T14:06:57.600Z,133.93
2022-12-15T14:09:39.571Z,152.43
2022-12-15T14:12:11.962Z,150.52
2022-12-15T14:17:15.178Z,134.93
2022-12-15T14:19:44.339Z,144.30
2022-12-15T14:22:30.081Z,143.77
2022-12-15T14:25:20.941Z,140.40
2022-12-15T14:30:36.958Z,133.48
2022-12-15T14:33:09.092Z,135.98
2022-12-15T14:35:55.939Z,133.48
2022-12-15T14:38:34.822Z,145.63
2022-12-15T14:41:04.125Z,144.02
2022-12-15T14:43:38.839Z,141.05
2022-12-15T14:46:22.531Z,135.57
2022-12-15T14:48:57.331Z,132.45
2022-12-15T14:51:26.512Z,126.68
2022-12-15T14:53:54.696Z,136.75
2022-12-15T14:56:29.396Z,129.93
2022-12-15T14:59:05.848Z,131.13
2022-12-15T15:01:56.269Z,124.10
2022-12-15T15:03:06.436Z,79.80
2022-12-15T15:03:10.415Z,147.60
2022-12-15T15:04:32.954Z,144.80
2022-12-15T15:07:02.222Z,139.07
2022-12-15T15:09:38.082Z,138.18
2022-12-15T15:12:23.729Z,140.68
2022-12-15T15:15:01.422Z,137.15
2022-12-15T15:17:50.150Z,136.38
2022-12-15T15:20:21.414Z,128.52
2022-12-15T15:23:08.459Z,135.18
2022-12-15T15:26:06.134Z,139.75
2022-12-15T15:28:41.848Z,149.75
2022-12-15T15:31:30.904Z,144.77
2022-12-15T15:34:01.079Z,141.38
2022-12-15T15:36:38.604Z,140.95
2022-12-15T15:39:13.424Z,128.40
2022-12-15T15:41:40.499Z,138.57
2022-12-15T15:44:13.960Z,130.73
2022-12-15T15:46:48.609Z,126.68
2022-12-15T15:49:18.781Z,130.02
2022-12-15T15:51:45.643Z,123.68
2022-12-15T15:54:17.785Z,134.85
2022-12-15T15:56:44.726Z,134.63
2022-12-15T15:59:16.389Z,136.30
2022-12-15T16:01:45.047Z,131.30
2022-12-15T16:04:12.166Z,140.20
2022-12-15T16:06:43.625Z,139.30
2022-12-15T16:09:15.793Z,137.25
2022-12-15T16:11:43.819Z,135.90
2022-12-15T16:14:15.431Z,148.02
2022-12-15T16:16:43.688Z,140.30
2022-12-15T16:19:12.116Z,151.07
2022-12-15T16:21:40.824Z,141.80
2022-12-15T16:24:15.521Z,173.55
2022-12-15T16:26:48.167Z,164.38
2022-12-15T16:29:16.489Z,162.52
2022-12-15T16:31:45.806Z,168.02
2022-12-15T16:34:14.135Z,153.90
2022-12-15T16:36:41.243Z,143.43
2022-12-15T16:39:33.880Z,145.63
2022-12-15T16:42:01.321Z,137.65
2022-12-15T16:44:29.263Z,146.23
2022-12-15T16:46:57.580Z,139.77
2022-12-15T16:49:24.666Z,147.05
2022-12-15T16:51:53.505Z,142.52
2022-12-15T16:54:25.545Z,147.73
2022-12-15T16:56:54.290Z,161.23
2022-12-15T16:59:33.141Z,150.68
2022-12-15T17:02:02.132Z,143.55
2022-12-15T17:04:29.196Z,146.18
2022-12-15T17:06:56.113Z,133.55
2022-12-15T17:09:25.343Z,146.98
2022-12-15T17:11:52.390Z,159.82
2022-12-15T17:14:21.183Z,151.05
2022-12-15T17:16:47.747Z,160.77
2022-12-15T17:19:20.875Z,162.80
2022-12-15T17:21:50.763Z,144.43
2022-12-15T17:24:20.663Z,148.43
2022-12-15T17:26:47.700Z,145.02
2022-12-15T17:29:19.306Z,148.43
2022-12-15T17:31:46.057Z,157.57
2022-12-15T17:34:30.578Z,156.50
2022-12-15T17:36:59.533Z,147.23
2022-12-15T17:39:27.137Z,142.93
2022-12-15T17:42:02.873Z,150.63
2022-12-15T17:44:37.476Z,151.68
2022-12-15T17:47:07.969Z,147.43
2022-12-15T17:49:37.208Z,159.75
2022-12-15T17:52:24.788Z,180.10
2022-12-15T17:54:51.997Z,163.13
2022-12-15T17:57:19.392Z,187.25
2022-12-15T17:59:46.372Z,178.18
2022-12-15T18:02:14.384Z,187.50
2022-12-15T18:04:42.242Z,184.52
2022-12-15T18:07:21.939Z,179.60
2022-12-15T18:09:50.833Z,182.13
2022-12-15T18:12:23.372Z,188.18
2022-12-15T18:14:50.397Z,224.90
2022-12-15T18:17:17.556Z,246.98
2022-12-15T18:19:44.776Z,179.40
2022-12-15T18:22:15.464Z,206.63
2022-12-15T18:24:42.229Z,217.63
2022-12-15T18:27:26.944Z,226.82
2022-12-15T18:29:54.287Z,199.80
2022-12-15T18:32:24.189Z,196.60
2022-12-15T18:34:51.063Z,201.43
2022-12-15T18:37:20.210Z,204.73
2022-12-15T18:39:48.362Z,192.65
2022-12-15T18:42:18.411Z,194.85
2022-12-15T18:44:56.526Z,192.23
2022-12-15T18:47:25.158Z,187.88
2022-12-15T18:49:51.903Z,186.65
2022-12-15T18:52:26.610Z,220.70
2022-12-15T18:54:55.539Z,222.73
2022-12-15T18:57:32.236Z,210.98
2022-12-15T19:00:15.592Z,211.90
2022-12-15T19:02:43.324Z,213.73
2022-12-15T19:05:27.071Z,204.43
2022-12-15T19:08:10.252Z,215.35
2022-12-15T19:10:45.751Z,203.80
2022-12-15T19:13:17.763Z,227.43
2022-12-15T19:15:45.878Z,218.98
2022-12-15T19:18:41.189Z,202.52
2022-12-15T19:21:37.048Z,207.07
2022-12-15T19:24:06.515Z,220.57
2022-12-15T19:26:33.297Z,218.00
2022-12-15T19:29:00.520Z,208.63
2022-12-15T19:31:27.256Z,199.48
2022-12-15T19:33:54.280Z,205.65
2022-12-15T19:36:23.654Z,195.07
2022-12-15T19:38:54.364Z,194.88
2022-12-15T19:41:21.329Z,193.95
2022-12-15T19:43:48.392Z,204.43
2022-12-15T19:46:20.874Z,196.10
2022-12-15T19:48:48.153Z,198.32
2022-12-15T19:51:21.368Z,198.43
2022-12-15T19:53:48.941Z,193.35
2022-12-15T19:56:22.406Z,192.10
2022-12-15T19:58:50.429Z,195.40
2022-12-15T20:01:19.850Z,217.30
2022-12-15T20:03:49.385Z,210.88
2022-12-15T20:06:25.520Z,217.80
2022-12-15T20:08:55.909Z,204.57
2022-12-15T20:11:29.180Z,218.60
2022-12-15T20:13:56.806Z,201.02
2022-12-15T20:16:24.051Z,198.77
2022-12-15T20:18:53.725Z,219.85
2022-12-15T20:21:22.793Z,233.52
2022-12-15T20:24:13.931Z,222.02
2022-12-15T20:26:41.298Z,198.95
2022-12-15T20:29:25.382Z,211.07
2022-12-15T20:31:52.753Z,194.48
2022-12-15T20:34:20.280Z,198.43
2022-12-15T20:36:47.343Z,197.40
2022-12-15T20:39:27.111Z,211.10
2022-12-15T20:41:54.581Z,200.85
2022-12-15T20:44:23.267Z,198.70
2022-12-15T20:46:50.253Z,199.98
2022-12-15T20:49:20.030Z,199.90
2022-12-15T20:51:47.955Z,197.73
2022-12-15T20:54:18.041Z,211.55
2022-12-15T20:56:45.160Z,195.98
2022-12-15T20:59:12.880Z,197.02
2022-12-15T21:01:39.910Z,193.70
2022-12-15T21:04:28.730Z,178.32
2022-12-15T21:06:56.236Z,190.02
2022-12-15T21:09:24.348Z,191.93
2022-12-15T21:11:54.851Z,194.02
2022-12-15T21:14:23.727Z,192.30
2022-12-15T21:16:50.796Z,177.55
2022-12-15T21:19:21.182Z,181.70
2022-12-15T21:21:52.938Z,194.60
2022-12-15T21:24:25.331Z,179.43
2022-12-15T21:26:52.530Z,203.90
2022-12-15T21:29:23.496Z,193.57
2022-12-15T21:31:50.532Z,188.77
2022-12-15T21:34:18.133Z,184.50
2022-12-15T21:36:49.698Z,188.77
2022-12-15T21:39:31.217Z,186.05
2022-12-15T21:42:00.050Z,178.85
2022-12-15T21:44:27.426Z,180.35
2022-12-15T21:46:54.656Z,197.43
2022-12-15T21:49:22.312Z,197.93
2022-12-15T21:51:55.220Z,198.93
2022-12-15T21:54:30.679Z,180.18
2022-12-15T21:56:58.287Z,196.38
2022-12-15T21:59:28.263Z,214.88
2022-12-15T22:01:55.968Z,222.05
2022-12-15T22:04:34.249Z,202.52
2022-12-15T22:07:01.476Z,209.55
2022-12-15T22:09:28.857Z,196.07
2022-12-15T22:11:56.621Z,186.82
2022-12-15T22:14:31.845Z,192.80
2022-12-15T22:16:59.948Z,203.68
2022-12-15T22:19:27.012Z,216.25
2022-12-15T22:21:53.778Z,211.85
2022-12-15T22:24:21.027Z,197.15
2022-12-15T22:26:47.894Z,203.20
2022-12-15T22:29:21.732Z,198.10
2022-12-15T22:31:50.155Z,193.27
2022-12-15T22:34:20.776Z,192.75
2022-12-15T22:36:48.032Z,188.55
2022-12-15T22:39:15.361Z,186.05
2022-12-15T22:41:44.693Z,173.23
2022-12-15T22:44:16.849Z,195.13
2022-12-15T22:46:43.657Z,190.18
2022-12-15T22:49:17.893Z,172.20
2022-12-15T22:51:44.828Z,158.90
2022-12-15T22:54:26.087Z,177.90
2022-12-15T22:57:03.822Z,173.95
2022-12-15T22:59:34.481Z,169.80
2022-12-15T23:02:02.475Z,175.73
2022-12-15T23:04:30.943Z,182.10
2022-12-15T23:06:59.811Z,170.02
2022-12-15T23:09:27.139Z,169.55
2022-12-15T23:11:54.179Z,165.13
2022-12-15T23:14:41.174Z,160.90
2022-12-15T23:17:08.165Z,159.82
2022-12-15T23:19:35.583Z,168.20
2022-12-15T23:22:02.179Z,163.18
2022-12-15T23:24:29.477Z,151.45
2022-12-15T23:26:56.054Z,162.73
2022-12-15T23:29:23.351Z,154.38
2022-12-15T23:31:49.963Z,143.15
2022-12-15T23:34:17.223Z,150.82
2022-12-15T23:36:43.944Z,156.05
2022-12-15T23:39:11.213Z,151.52
2022-12-15T23:41:37.799Z,147.80
2022-12-15T23:44:05.864Z,159.73
2022-12-15T23:46:32.680Z,152.82
2022-12-15T23:48:59.873Z,170.13
2022-12-15T23:51:26.511Z,163.40
2022-12-15T23:53:53.828Z,153.43
2022-12-15T23:56:24.016Z,161.48
2022-12-15T23:58:56.846Z,149.23
